createdAt,value
2018-06-17T00:00:34.588Z,99.90
2018-06-17T00:03:03.642Z,99.90
2018-06-17T00:05:32.273Z,99.90
2018-06-17T00:08:00.754Z,99.90
2018-06-17T00:10:29.224Z,99.90
2018-06-17T00:12:57.897Z,99.90
2018-06-17T00:15:26.355Z,99.90
2018-06-17T00:17:54.888Z,99.90
2018-06-17T00:20:24.306Z,99.90
2018-06-17T00:25:21.910Z,99.90
2018-06-17T00:27:50.392Z,99.90
2018-06-17T00:30:18.834Z,99.90
2018-06-17T00:32:47.257Z,99.90
2018-06-17T00:35:16.327Z,99.90
2018-06-17T00:37:44.739Z,99.90
2018-06-17T00:40:13.175Z,99.90
2018-06-17T00:42:41.683Z,99.90
2018-06-17T00:45:10.394Z,99.90
2018-06-17T00:47:39.500Z,99.90
2018-06-17T00:50:08.966Z,99.90
2018-06-17T00:52:37.551Z,99.90
2018-06-17T00:55:05.955Z,99.90
2018-06-17T00:57:46.991Z,99.90
2018-06-17T01:00:16.121Z,99.90
2018-06-17T01:02:44.851Z,99.90
2018-06-17T01:05:13.720Z,99.90
2018-06-17T01:07:42.389Z,99.90
2018-06-17T01:10:10.844Z,99.90
2018-06-17T01:12:39.808Z,99.90
2018-06-17T01:15:08.771Z,99.90
2018-06-17T01:17:37.812Z,99.90
2018-06-17T01:20:07.175Z,99.90
2018-06-17T01:22:35.645Z,99.90
2018-06-17T01:25:04.153Z,99.90
2018-06-17T01:27:32.756Z,99.90
2018-06-17T01:30:01.299Z,99.90
2018-06-17T01:32:29.831Z,99.90
2018-06-17T01:34:59.756Z,99.90
2018-06-17T01:37:28.379Z,99.90
2018-06-17T01:39:56.899Z,99.90
2018-06-17T01:42:25.384Z,99.90
2018-06-17T01:44:54.338Z,99.90
2018-06-17T01:47:22.771Z,99.90
2018-06-17T01:49:51.247Z,99.90
2018-06-17T01:52:19.670Z,99.90
2018-06-17T01:54:49.054Z,99.90
2018-06-17T01:57:17.516Z,99.90
2018-06-17T01:59:46.008Z,99.90
2018-06-17T02:02:14.528Z,99.90
2018-06-17T02:04:48.280Z,99.90
2018-06-17T02:07:22.051Z,99.90
2018-06-17T02:10:02.551Z,99.90
2018-06-17T02:12:30.995Z,99.90
2018-06-17T02:15:00.204Z,99.90
2018-06-17T02:17:29.367Z,99.90
2018-06-17T02:19:57.917Z,99.90
2018-06-17T02:22:26.374Z,99.90
2018-06-17T02:37:54.730Z,99.90
2018-06-17T02:40:23.270Z,99.90
2018-06-17T02:42:51.700Z,99.90
2018-06-17T07:49:49.935Z,91.40
2018-06-17T08:36:58.905Z,85.40
2018-06-17T08:39:27.493Z,83.80
2018-06-17T08:41:56.048Z,87.40
2018-06-17T08:44:24.541Z,89.30
2018-06-17T08:46:53.156Z,90.00
2018-06-17T08:51:50.317Z,84.20
2018-06-17T08:54:18.955Z,84.70
2018-06-17T08:56:47.456Z,85.20
2018-06-17T08:59:16.013Z,86.20
2018-06-17T09:04:12.795Z,85.00
2018-06-17T09:06:41.978Z,83.40
2018-06-17T09:11:39.473Z,83.40
2018-06-17T11:45:12.424Z,64.80
2018-06-17T11:47:41.332Z,69.00
2018-06-17T11:50:10.485Z,73.60
2018-06-17T11:52:39.012Z,70.40
2018-06-17T11:55:07.571Z,70.20
2018-06-17T11:57:38.992Z,67.20
2018-06-17T12:00:07.831Z,70.20
2018-06-17T12:02:37.724Z,68.50
2018-06-17T14:03:50.602Z,75.70
2018-06-17T14:06:19.182Z,76.60
2018-06-17T14:08:48.078Z,79.90
2018-06-17T14:11:16.566Z,81.40
2018-06-17T14:13:45.280Z,83.00
2018-06-17T14:16:13.891Z,82.50
2018-06-17T15:25:56.098Z,87.90
2018-06-17T15:28:24.729Z,84.30
2018-06-17T15:30:53.341Z,88.30
2018-06-17T15:33:27.054Z,88.10
2018-06-17T15:36:00.799Z,86.70
2018-06-17T15:38:34.721Z,89.10
2018-06-17T15:41:08.391Z,88.30
2018-06-17T15:43:36.885Z,84.70
2018-06-17T15:46:05.513Z,86.60
2018-06-17T15:48:34.019Z,85.10
2018-06-17T15:51:02.686Z,85.70
2018-06-17T15:53:31.406Z,85.10
2018-06-17T15:58:28.698Z,87.70
2018-06-17T16:00:57.416Z,87.90
2018-06-17T16:03:26.009Z,89.30
2018-06-17T16:05:56.067Z,90.00
2018-06-17T16:08:24.618Z,89.20
2018-06-17T16:10:53.092Z,88.90
2018-06-17T16:13:27.797Z,89.10
2018-06-17T16:16:01.583Z,89.80
2018-06-17T16:18:35.353Z,89.80
2018-06-17T16:21:06.188Z,91.20
2018-06-17T16:23:35.281Z,89.60
2018-06-17T16:26:03.966Z,90.40
2018-06-17T16:28:32.522Z,90.50
2018-06-17T16:31:01.065Z,90.80
2018-06-17T16:33:29.569Z,90.90
2018-06-17T16:35:58.133Z,90.80
2018-06-17T16:38:26.657Z,91.00
2018-06-17T16:40:55.221Z,91.10
2018-06-17T16:43:23.949Z,90.30
2018-06-17T16:45:52.411Z,90.70
2018-06-17T16:48:20.938Z,89.90
2018-06-17T16:50:54.965Z,90.70
2018-06-17T16:53:28.718Z,90.80
2018-06-17T16:56:03.131Z,91.20
2018-06-17T16:58:37.007Z,90.50
2018-06-17T17:01:05.541Z,90.30
2018-06-17T17:03:34.624Z,91.00
2018-06-17T17:06:03.253Z,90.70
2018-06-17T17:08:31.744Z,90.90
2018-06-17T17:11:01.002Z,90.80
2018-06-17T17:13:29.430Z,91.00
2018-06-17T17:15:58.757Z,90.70
2018-06-17T17:18:27.420Z,91.20
2018-06-17T17:20:56.001Z,91.50
2018-06-17T17:23:24.498Z,91.20
2018-06-17T17:25:53.496Z,91.60
2018-06-17T17:28:24.986Z,91.70
2018-06-17T17:30:53.498Z,91.50
2018-06-17T17:33:27.431Z,91.90
2018-06-17T17:36:01.366Z,92.30
2018-06-17T17:39:32.807Z,92.40
2018-06-17T17:42:01.546Z,92.50
2018-06-17T17:44:34.288Z,93.00
2018-06-17T17:47:08.210Z,92.90
2018-06-17T17:49:36.803Z,92.60
2018-06-17T17:52:05.442Z,92.60
2018-06-17T17:54:34.015Z,92.90
2018-06-17T17:57:02.667Z,92.70
2018-06-17T18:01:59.512Z,93.30
2018-06-17T18:06:56.309Z,93.50
2018-06-17T18:09:25.220Z,94.10
2018-06-17T18:11:53.822Z,94.40
2018-06-17T18:14:22.420Z,95.10
2018-06-17T18:16:50.968Z,95.70
2018-06-17T18:19:19.550Z,96.20
2018-06-17T18:21:49.180Z,97.10
2018-06-17T18:24:17.781Z,97.30
2018-06-17T18:26:51.635Z,98.00
2018-06-17T19:34:15.643Z,97.00
2018-06-17T19:36:44.288Z,97.40
2018-06-17T19:39:12.810Z,97.70
2018-06-17T19:41:41.497Z,98.00
2018-06-17T19:44:10.221Z,98.30
2018-06-17T19:46:38.778Z,98.50
2018-06-17T19:49:07.537Z,98.70
2018-06-17T19:51:41.281Z,99.00
2018-06-17T19:54:15.194Z,99.10
2018-06-17T19:56:49.075Z,99.10
2018-06-17T19:59:22.840Z,99.40
2018-06-17T20:04:19.602Z,99.10
2018-06-17T20:06:48.185Z,99.30
2018-06-17T20:09:16.757Z,99.50
2018-06-17T20:11:46.045Z,99.50
2018-06-17T20:14:14.755Z,99.70
2018-06-17T20:16:43.541Z,99.90
2018-06-17T20:19:12.093Z,99.90
2018-06-17T20:21:40.923Z,99.90
2018-06-17T20:24:09.536Z,99.90
2018-06-17T20:26:39.413Z,99.90
2018-06-17T20:29:07.944Z,99.90
2018-06-17T20:31:40.691Z,99.90
2018-06-17T20:34:14.364Z,99.90
2018-06-17T20:36:48.283Z,99.90
2018-06-17T20:39:22.807Z,99.90
2018-06-17T20:42:57.262Z,99.90
2018-06-17T20:47:54.592Z,99.90
2018-06-17T20:50:23.567Z,99.90
2018-06-17T20:52:52.089Z,99.90
2018-06-17T20:55:20.548Z,99.90
2018-06-17T20:57:49.824Z,99.90
2018-06-17T21:00:19.242Z,99.90
2018-06-17T21:02:48.071Z,99.90
2018-06-17T21:05:16.543Z,99.90
2018-06-17T21:07:45.162Z,99.90
2018-06-17T21:10:13.704Z,99.90
2018-06-17T21:12:42.284Z,99.90
2018-06-17T21:15:16.297Z,99.90
2018-06-17T21:17:45.792Z,99.90
2018-06-17T21:20:19.640Z,99.90
2018-06-17T21:22:53.673Z,99.90
2018-06-17T21:25:27.426Z,99.90
2018-06-17T21:27:58.377Z,99.90
2018-06-17T21:30:26.846Z,99.90
2018-06-17T21:32:55.835Z,99.90
2018-06-17T21:35:24.846Z,99.90
2018-06-17T21:37:53.869Z,99.90
2018-06-17T21:40:23.034Z,99.90
2018-06-17T21:42:52.718Z,99.90
2018-06-17T21:45:21.172Z,99.90
2018-06-17T21:47:49.708Z,99.90
2018-06-17T21:50:18.152Z,99.90
2018-06-17T21:52:46.676Z,99.90
2018-06-17T21:55:15.349Z,99.90
2018-06-17T21:57:44.821Z,99.90
2018-06-17T22:00:13.528Z,99.90
2018-06-17T22:02:41.979Z,99.90
2018-06-17T22:05:11.046Z,99.90
2018-06-17T22:07:44.972Z,99.90
2018-06-17T22:10:18.735Z,99.90
2018-06-17T22:12:52.216Z,99.90
